Portada
METAR-TAF:

METAR-TAF

Aeropuertos :

San Antonio del Táchira, Venezuela

Aeropuerto Internacional Juan Vicente Gómez

latitud: 07-51N, longitud: 072-27W, altitud: 377 m

METAR: falta

Hora: 19:37 (23:37 UTC)

Pronóstico

El informe se hizo hace 7 horas y 37 minutos, a las 16:00 UTC
Pronóstico válido del 20 a las 18 UTC al 21 a las 18 UTC
Viento 10 kt del sur
Visibilidad 10 km o más
Nubes dispersas a una altura de 2000 ft
Evolucionando progresivamente
del 20 a las 18 UTC al 20 a las 22 UTC
Viento 5 kt del suroeste
Escasas nubes a una altura de 1600 ft
Nubes dispersas a una altura de 8000 ft

TAF: SVSA 201600Z 2018/2118 18010KT 9999 SCT020 TX34/19Z TN23/08Z BECMG 2018/2022 22005KT FEW016 SCT080

Observaciones y pronósticos meteorológicos de más de 4000 aeropuertos (mensajes METAR y TAF).

Los puntos amarillos y rojos representan las estaciones disponibles.

Ponga el ratón en el punto deseado para ver el nombre de la estación.

Haga clic para ver las observaciones y los pronósticos meteorológicos.

Para cambiar el mapa : haga clic en los botones verdes con una cruz de color negro para hacer un zoom, en el botón verde con un guión para alejar o en las flechas verdes para mapas adyacentes.


METAR-TAF: